sensor_id;sensor_type;location;lat;lon;timestamp;temperature;humidity
8994;DHT22;4532;50.886;4.700;2023-09-30T00:02:14;15.30;68.80
8994;DHT22;4532;50.886;4.700;2023-09-30T00:04:44;15.30;68.90
8994;DHT22;4532;50.886;4.700;2023-09-30T00:07:11;15.30;68.90
8994;DHT22;4532;50.886;4.700;2023-09-30T00:09:38;15.30;68.90
8994;DHT22;4532;50.886;4.700;2023-09-30T00:12:07;15.30;69.00
8994;DHT22;4532;50.886;4.700;2023-09-30T00:14:34;15.30;68.90
8994;DHT22;4532;50.886;4.700;2023-09-30T00:17:02;15.30;69.00
8994;DHT22;4532;50.886;4.700;2023-09-30T00:19:30;15.30;69.00
8994;DHT22;4532;50.886;4.700;2023-09-30T00:21:59;15.30;69.00
8994;DHT22;4532;50.886;4.700;2023-09-30T00:24:27;15.30;69.00
8994;DHT22;4532;50.886;4.700;2023-09-30T00:26:59;15.30;69.00
8994;DHT22;4532;50.886;4.700;2023-09-30T00:29:26;15.30;69.00
8994;DHT22;4532;50.886;4.700;2023-09-30T00:31:58;15.20;69.00
8994;DHT22;4532;50.886;4.700;2023-09-30T00:34:27;15.20;69.00
8994;DHT22;4532;50.886;4.700;2023-09-30T00:36:54;15.20;69.00
8994;DHT22;4532;50.886;4.700;2023-09-30T00:39:21;15.20;69.10
8994;DHT22;4532;50.886;4.700;2023-09-30T00:41:49;15.20;69.00
8994;DHT22;4532;50.886;4.700;2023-09-30T00:44:19;15.20;69.00
8994;DHT22;4532;50.886;4.700;2023-09-30T00:46:49;15.20;69.10
8994;DHT22;4532;50.886;4.700;2023-09-30T00:49:18;15.20;69.10
8994;DHT22;4532;50.886;4.700;2023-09-30T00:51:49;15.20;69.10
8994;DHT22;4532;50.886;4.700;2023-09-30T00:54:21;15.20;69.10
8994;DHT22;4532;50.886;4.700;2023-09-30T00:56:50;15.10;69.00
8994;DHT22;4532;50.886;4.700;2023-09-30T00:59:18;15.10;69.00
8994;DHT22;4532;50.886;4.700;2023-09-30T01:01:47;15.20;69.20
8994;DHT22;4532;50.886;4.700;2023-09-30T01:04:15;15.10;69.10
8994;DHT22;4532;50.886;4.700;2023-09-30T01:06:42;15.10;69.20
8994;DHT22;4532;50.886;4.700;2023-09-30T01:09:09;15.10;69.20
8994;DHT22;4532;50.886;4.700;2023-09-30T01:11:37;15.10;69.20
8994;DHT22;4532;50.886;4.700;2023-09-30T01:14:04;15.10;69.20
8994;DHT22;4532;50.886;4.700;2023-09-30T01:16:31;15.10;69.30
8994;DHT22;4532;50.886;4.700;2023-09-30T01:19:01;15.00;69.20
8994;DHT22;4532;50.886;4.700;2023-09-30T01:21:33;15.00;69.20
8994;DHT22;4532;50.886;4.700;2023-09-30T01:24:01;15.00;69.30
8994;DHT22;4532;50.886;4.700;2023-09-30T01:26:30;15.00;69.30
8994;DHT22;4532;50.886;4.700;2023-09-30T01:28:58;15.00;69.40
8994;DHT22;4532;50.886;4.700;2023-09-30T01:31:25;15.00;69.30
8994;DHT22;4532;50.886;4.700;2023-09-30T01:33:52;14.90;69.30
8994;DHT22;4532;50.886;4.700;2023-09-30T01:36:21;14.90;69.30
8994;DHT22;4532;50.886;4.700;2023-09-30T01:38:51;14.90;69.30
8994;DHT22;4532;50.886;4.700;2023-09-30T01:41:19;14.90;69.30
8994;DHT22;4532;50.886;4.700;2023-09-30T01:43:46;14.90;69.30
8994;DHT22;4532;50.886;4.700;2023-09-30T01:46:14;14.90;69.30
8994;DHT22;4532;50.886;4.700;2023-09-30T01:48:41;14.80;69.20
8994;DHT22;4532;50.886;4.700;2023-09-30T01:51:08;14.80;69.30
8994;DHT22;4532;50.886;4.700;2023-09-30T01:53:35;14.80;69.40
8994;DHT22;4532;50.886;4.700;2023-09-30T01:56:03;14.80;69.40
8994;DHT22;4532;50.886;4.700;2023-09-30T01:58:30;14.80;69.40
8994;DHT22;4532;50.886;4.700;2023-09-30T02:01:05;14.80;69.50
8994;DHT22;4532;50.886;4.700;2023-09-30T02:03:33;14.80;69.50
8994;DHT22;4532;50.886;4.700;2023-09-30T02:06:00;14.80;69.50
8994;DHT22;4532;50.886;4.700;2023-09-30T02:08:27;14.80;69.50
8994;DHT22;4532;50.886;4.700;2023-09-30T02:10:55;14.80;69.50
8994;DHT22;4532;50.886;4.700;2023-09-30T02:13:22;14.80;69.50
8994;DHT22;4532;50.886;4.700;2023-09-30T02:15:49;14.80;69.60
8994;DHT22;4532;50.886;4.700;2023-09-30T02:18:19;14.70;69.60
8994;DHT22;4532;50.886;4.700;2023-09-30T02:20:46;14.70;69.60
8994;DHT22;4532;50.886;4.700;2023-09-30T02:23:13;14.70;69.60
8994;DHT22;4532;50.886;4.700;2023-09-30T02:25:46;14.70;69.60
8994;DHT22;4532;50.886;4.700;2023-09-30T02:28:13;14.70;69.60
8994;DHT22;4532;50.886;4.700;2023-09-30T02:30:40;14.70;69.60
8994;DHT22;4532;50.886;4.700;2023-09-30T02:33:07;14.70;69.60
8994;DHT22;4532;50.886;4.700;2023-09-30T02:35:35;14.70;70.50
8994;DHT22;4532;50.886;4.700;2023-09-30T02:38:02;14.70;69.70
8994;DHT22;4532;50.886;4.700;2023-09-30T02:40:29;14.70;69.70
8994;DHT22;4532;50.886;4.700;2023-09-30T02:42:56;14.60;69.70
8994;DHT22;4532;50.886;4.700;2023-09-30T02:45:24;14.60;69.70
8994;DHT22;4532;50.886;4.700;2023-09-30T02:47:53;14.60;69.70
8994;DHT22;4532;50.886;4.700;2023-09-30T02:50:20;14.60;69.70
8994;DHT22;4532;50.886;4.700;2023-09-30T02:52:50;14.60;69.70
8994;DHT22;4532;50.886;4.700;2023-09-30T02:55:18;14.60;69.80
8994;DHT22;4532;50.886;4.700;2023-09-30T02:57:48;14.60;69.80
8994;DHT22;4532;50.886;4.700;2023-09-30T03:00:15;14.50;69.80
8994;DHT22;4532;50.886;4.700;2023-09-30T03:02:56;14.50;69.80
8994;DHT22;4532;50.886;4.700;2023-09-30T03:05:23;14.60;69.90
8994;DHT22;4532;50.886;4.700;2023-09-30T03:07:51;14.50;69.90
8994;DHT22;4532;50.886;4.700;2023-09-30T03:10:18;14.50;69.90
8994;DHT22;4532;50.886;4.700;2023-09-30T03:12:47;14.50;69.90
8994;DHT22;4532;50.886;4.700;2023-09-30T03:15:15;14.50;69.90
8994;DHT22;4532;50.886;4.700;2023-09-30T03:17:43;14.50;69.90
8994;DHT22;4532;50.886;4.700;2023-09-30T03:20:13;14.50;69.90
8994;DHT22;4532;50.886;4.700;2023-09-30T03:22:42;14.50;70.00
8994;DHT22;4532;50.886;4.700;2023-09-30T03:25:12;14.50;70.00
8994;DHT22;4532;50.886;4.700;2023-09-30T03:27:45;14.50;70.00
8994;DHT22;4532;50.886;4.700;2023-09-30T03:30:15;14.50;70.00
8994;DHT22;4532;50.886;4.700;2023-09-30T03:32:43;14.50;70.10
8994;DHT22;4532;50.886;4.700;2023-09-30T03:35:11;14.50;70.10
8994;DHT22;4532;50.886;4.700;2023-09-30T03:37:46;14.50;70.10
8994;DHT22;4532;50.886;4.700;2023-09-30T03:40:14;14.50;70.10
8994;DHT22;4532;50.886;4.700;2023-09-30T03:42:49;14.50;70.10
8994;DHT22;4532;50.886;4.700;2023-09-30T03:45:17;14.50;70.10
8994;DHT22;4532;50.886;4.700;2023-09-30T03:47:45;14.50;70.10
8994;DHT22;4532;50.886;4.700;2023-09-30T03:50:18;14.50;70.20
8994;DHT22;4532;50.886;4.700;2023-09-30T03:52:45;14.50;70.10
8994;DHT22;4532;50.886;4.700;2023-09-30T03:55:17;14.50;70.20
8994;DHT22;4532;50.886;4.700;2023-09-30T03:57:49;14.50;70.20
8994;DHT22;4532;50.886;4.700;2023-09-30T04:00:18;14.50;70.20
8994;DHT22;4532;50.886;4.700;2023-09-30T04:02:51;14.50;70.20
8994;DHT22;4532;50.886;4.700;2023-09-30T04:05:26;14.40;70.20
8994;DHT22;4532;50.886;4.700;2023-09-30T04:07:59;14.40;70.20
8994;DHT22;4532;50.886;4.700;2023-09-30T04:10:26;14.40;70.30
8994;DHT22;4532;50.886;4.700;2023-09-30T04:12:54;14.40;70.30
8994;DHT22;4532;50.886;4.700;2023-09-30T04:15:21;14.40;70.20
8994;DHT22;4532;50.886;4.700;2023-09-30T04:17:49;14.40;70.30
8994;DHT22;4532;50.886;4.700;2023-09-30T04:20:19;14.30;70.20
8994;DHT22;4532;50.886;4.700;2023-09-30T04:22:51;14.40;70.30
8994;DHT22;4532;50.886;4.700;2023-09-30T04:25:18;14.40;70.30
8994;DHT22;4532;50.886;4.700;2023-09-30T04:27:46;14.30;70.30
8994;DHT22;4532;50.886;4.700;2023-09-30T04:30:17;14.30;70.30
8994;DHT22;4532;50.886;4.700;2023-09-30T04:32:44;14.30;70.30
8994;DHT22;4532;50.886;4.700;2023-09-30T04:35:12;14.30;70.30
8994;DHT22;4532;50.886;4.700;2023-09-30T04:37:39;14.30;70.30
8994;DHT22;4532;50.886;4.700;2023-09-30T04:40:12;14.20;70.30
8994;DHT22;4532;50.886;4.700;2023-09-30T04:42:43;14.20;70.30
8994;DHT22;4532;50.886;4.700;2023-09-30T04:45:14;14.20;70.40
8994;DHT22;4532;50.886;4.700;2023-09-30T04:47:43;14.20;70.30
8994;DHT22;4532;50.886;4.700;2023-09-30T04:50:18;14.20;70.40
8994;DHT22;4532;50.886;4.700;2023-09-30T04:52:53;14.20;70.30
8994;DHT22;4532;50.886;4.700;2023-09-30T04:55:20;14.20;70.30
8994;DHT22;4532;50.886;4.700;2023-09-30T04:57:52;14.10;70.30
8994;DHT22;4532;50.886;4.700;2023-09-30T05:00:22;14.20;70.40
8994;DHT22;4532;50.886;4.700;2023-09-30T05:02:54;14.10;70.40
8994;DHT22;4532;50.886;4.700;2023-09-30T05:05:26;14.10;70.40
8994;DHT22;4532;50.886;4.700;2023-09-30T05:07:53;14.10;70.40
8994;DHT22;4532;50.886;4.700;2023-09-30T05:10:22;14.10;70.40
8994;DHT22;4532;50.886;4.700;2023-09-30T05:12:51;14.10;70.50
8994;DHT22;4532;50.886;4.700;2023-09-30T05:15:23;14.10;70.40
8994;DHT22;4532;50.886;4.700;2023-09-30T05:17:53;14.10;70.50
8994;DHT22;4532;50.886;4.700;2023-09-30T05:20:20;14.10;70.50
8994;DHT22;4532;50.886;4.700;2023-09-30T05:22:47;14.10;70.50
8994;DHT22;4532;50.886;4.700;2023-09-30T05:25:18;14.00;70.50
8994;DHT22;4532;50.886;4.700;2023-09-30T05:27:47;14.00;70.50
8994;DHT22;4532;50.886;4.700;2023-09-30T05:30:18;14.00;70.50
8994;DHT22;4532;50.886;4.700;2023-09-30T05:32:47;14.00;70.50
8994;DHT22;4532;50.886;4.700;2023-09-30T05:35:17;14.00;70.50
8994;DHT22;4532;50.886;4.700;2023-09-30T05:37:45;14.00;70.50
8994;DHT22;4532;50.886;4.700;2023-09-30T05:40:12;13.90;70.50
8994;DHT22;4532;50.886;4.700;2023-09-30T05:42:58;13.90;70.50
8994;DHT22;4532;50.886;4.700;2023-09-30T05:45:27;13.90;70.50
8994;DHT22;4532;50.886;4.700;2023-09-30T05:47:55;13.90;70.50
8994;DHT22;4532;50.886;4.700;2023-09-30T05:50:25;13.90;70.60
8994;DHT22;4532;50.886;4.700;2023-09-30T05:52:56;13.90;70.60
8994;DHT22;4532;50.886;4.700;2023-09-30T05:55:23;13.90;70.60
8994;DHT22;4532;50.886;4.700;2023-09-30T05:57:55;13.90;70.60
8994;DHT22;4532;50.886;4.700;2023-09-30T06:00:23;13.80;70.60
8994;DHT22;4532;50.886;4.700;2023-09-30T06:02:57;13.80;70.60
8994;DHT22;4532;50.886;4.700;2023-09-30T06:05:27;13.80;70.70
8994;DHT22;4532;50.886;4.700;2023-09-30T06:08:03;13.80;70.70
8994;DHT22;4532;50.886;4.700;2023-09-30T06:10:31;13.80;70.70
8994;DHT22;4532;50.886;4.700;2023-09-30T06:12:58;13.80;70.70
8994;DHT22;4532;50.886;4.700;2023-09-30T06:15:26;13.80;70.80
8994;DHT22;4532;50.886;4.700;2023-09-30T06:17:55;13.80;70.70
8994;DHT22;4532;50.886;4.700;2023-09-30T06:20:27;13.80;70.80
8994;DHT22;4532;50.886;4.700;2023-09-30T06:23:00;13.80;70.80
8994;DHT22;4532;50.886;4.700;2023-09-30T06:25:30;13.80;70.90
8994;DHT22;4532;50.886;4.700;2023-09-30T06:28:00;13.80;70.90
8994;DHT22;4532;50.886;4.700;2023-09-30T06:30:27;13.80;70.90
8994;DHT22;4532;50.886;4.700;2023-09-30T06:33:00;13.80;70.90
8994;DHT22;4532;50.886;4.700;2023-09-30T06:35:28;13.80;71.00
8994;DHT22;4532;50.886;4.700;2023-09-30T06:38:04;13.80;70.90
8994;DHT22;4532;50.886;4.700;2023-09-30T06:40:34;13.80;70.90
8994;DHT22;4532;50.886;4.700;2023-09-30T06:43:05;13.80;71.00
8994;DHT22;4532;50.886;4.700;2023-09-30T06:45:33;13.80;71.00
8994;DHT22;4532;50.886;4.700;2023-09-30T06:48:00;13.80;71.10
8994;DHT22;4532;50.886;4.700;2023-09-30T06:50:27;13.80;71.10
8994;DHT22;4532;50.886;4.700;2023-09-30T06:52:54;13.90;71.30
8994;DHT22;4532;50.886;4.700;2023-09-30T06:55:22;13.90;71.20
8994;DHT22;4532;50.886;4.700;2023-09-30T06:57:49;13.90;71.30
8994;DHT22;4532;50.886;4.700;2023-09-30T07:00:18;13.90;71.30
8994;DHT22;4532;50.886;4.700;2023-09-30T07:02:45;13.90;71.30
8994;DHT22;4532;50.886;4.700;2023-09-30T07:05:14;14.00;71.40
8994;DHT22;4532;50.886;4.700;2023-09-30T07:07:44;14.00;71.40
8994;DHT22;4532;50.886;4.700;2023-09-30T07:10:13;14.00;71.50
8994;DHT22;4532;50.886;4.700;2023-09-30T07:12:41;14.10;71.50
8994;DHT22;4532;50.886;4.700;2023-09-30T07:15:11;14.10;71.50
8994;DHT22;4532;50.886;4.700;2023-09-30T07:17:43;14.10;71.50
8994;DHT22;4532;50.886;4.700;2023-09-30T07:20:14;14.10;71.60
8994;DHT22;4532;50.886;4.700;2023-09-30T07:22:42;14.20;71.70
8994;DHT22;4532;50.886;4.700;2023-09-30T07:25:25;14.20;71.70
8994;DHT22;4532;50.886;4.700;2023-09-30T07:27:54;14.30;71.70
8994;DHT22;4532;50.886;4.700;2023-09-30T07:30:21;14.30;71.80
8994;DHT22;4532;50.886;4.700;2023-09-30T07:32:49;14.30;71.70
8994;DHT22;4532;50.886;4.700;2023-09-30T07:35:19;14.40;71.90
8994;DHT22;4532;50.886;4.700;2023-09-30T07:37:49;14.40;71.80
8994;DHT22;4532;50.886;4.700;2023-09-30T07:40:22;14.50;71.90
8994;DHT22;4532;50.886;4.700;2023-09-30T07:42:52;14.50;71.90
8994;DHT22;4532;50.886;4.700;2023-09-30T07:45:19;14.60;72.00
8994;DHT22;4532;50.886;4.700;2023-09-30T07:47:50;14.60;72.00
8994;DHT22;4532;50.886;4.700;2023-09-30T07:50:18;14.70;72.00
8994;DHT22;4532;50.886;4.700;2023-09-30T07:52:46;14.70;72.10
8994;DHT22;4532;50.886;4.700;2023-09-30T07:55:13;14.70;72.10
8994;DHT22;4532;50.886;4.700;2023-09-30T07:57:42;14.80;72.20
8994;DHT22;4532;50.886;4.700;2023-09-30T08:00:13;14.80;72.20
8994;DHT22;4532;50.886;4.700;2023-09-30T08:02:44;14.90;72.20
8994;DHT22;4532;50.886;4.700;2023-09-30T08:05:12;14.90;72.20
8994;DHT22;4532;50.886;4.700;2023-09-30T08:07:40;15.00;72.20
8994;DHT22;4532;50.886;4.700;2023-09-30T08:10:09;15.00;72.20
8994;DHT22;4532;50.886;4.700;2023-09-30T08:12:41;15.10;72.30
8994;DHT22;4532;50.886;4.700;2023-09-30T08:15:09;15.10;72.40
8994;DHT22;4532;50.886;4.700;2023-09-30T08:17:40;15.20;72.50
8994;DHT22;4532;50.886;4.700;2023-09-30T08:20:08;15.20;72.40
8994;DHT22;4532;50.886;4.700;2023-09-30T08:22:37;15.30;72.50
8994;DHT22;4532;50.886;4.700;2023-09-30T08:25:05;15.30;72.40
8994;DHT22;4532;50.886;4.700;2023-09-30T08:27:33;15.40;72.50
8994;DHT22;4532;50.886;4.700;2023-09-30T08:30:01;15.40;72.50
8994;DHT22;4532;50.886;4.700;2023-09-30T08:32:34;15.40;71.90
8994;DHT22;4532;50.886;4.700;2023-09-30T08:35:02;15.50;72.60
8994;DHT22;4532;50.886;4.700;2023-09-30T08:37:36;15.50;72.60
8994;DHT22;4532;50.886;4.700;2023-09-30T08:40:03;15.60;72.60
8994;DHT22;4532;50.886;4.700;2023-09-30T08:42:32;15.70;72.70
8994;DHT22;4532;50.886;4.700;2023-09-30T08:45:06;15.70;72.70
8994;DHT22;4532;50.886;4.700;2023-09-30T08:47:35;15.80;72.80
8994;DHT22;4532;50.886;4.700;2023-09-30T08:50:06;15.80;72.70
8994;DHT22;4532;50.886;4.700;2023-09-30T08:52:42;15.90;72.80
8994;DHT22;4532;50.886;4.700;2023-09-30T08:55:13;16.00;72.90
8994;DHT22;4532;50.886;4.700;2023-09-30T08:57:41;16.00;72.80
8994;DHT22;4532;50.886;4.700;2023-09-30T09:00:12;16.10;72.90
8994;DHT22;4532;50.886;4.700;2023-09-30T09:02:41;16.10;73.00
8994;DHT22;4532;50.886;4.700;2023-09-30T09:05:09;16.20;73.70
8994;DHT22;4532;50.886;4.700;2023-09-30T09:07:39;16.20;72.90
8994;DHT22;4532;50.886;4.700;2023-09-30T09:10:10;16.30;73.00
8994;DHT22;4532;50.886;4.700;2023-09-30T09:12:40;16.30;73.00
8994;DHT22;4532;50.886;4.700;2023-09-30T09:15:20;16.40;72.90
8994;DHT22;4532;50.886;4.700;2023-09-30T09:17:48;16.40;72.90
8994;DHT22;4532;50.886;4.700;2023-09-30T09:20:20;16.50;73.00
8994;DHT22;4532;50.886;4.700;2023-09-30T09:22:54;16.50;73.00
8994;DHT22;4532;50.886;4.700;2023-09-30T09:25:27;16.50;73.00
8994;DHT22;4532;50.886;4.700;2023-09-30T09:27:55;16.60;73.10
8994;DHT22;4532;50.886;4.700;2023-09-30T09:30:24;16.60;73.10
8994;DHT22;4532;50.886;4.700;2023-09-30T09:32:59;16.70;73.20
8994;DHT22;4532;50.886;4.700;2023-09-30T09:35:28;16.80;73.20
8994;DHT22;4532;50.886;4.700;2023-09-30T09:38:03;16.80;73.10
8994;DHT22;4532;50.886;4.700;2023-09-30T09:40:35;16.90;73.10
8994;DHT22;4532;50.886;4.700;2023-09-30T09:43:03;16.90;73.20
8994;DHT22;4532;50.886;4.700;2023-09-30T09:45:37;16.90;73.10
8994;DHT22;4532;50.886;4.700;2023-09-30T09:48:05;17.00;73.30
8994;DHT22;4532;50.886;4.700;2023-09-30T09:50:34;17.10;73.20
8994;DHT22;4532;50.886;4.700;2023-09-30T09:53:05;17.10;73.10
8994;DHT22;4532;50.886;4.700;2023-09-30T09:55:33;17.20;73.20
8994;DHT22;4532;50.886;4.700;2023-09-30T09:58:06;17.20;73.10
8994;DHT22;4532;50.886;4.700;2023-09-30T10:00:35;17.20;73.00
8994;DHT22;4532;50.886;4.700;2023-09-30T10:03:03;17.30;73.10
8994;DHT22;4532;50.886;4.700;2023-09-30T10:05:31;17.30;73.10
8994;DHT22;4532;50.886;4.700;2023-09-30T10:08:19;17.40;73.20
8994;DHT22;4532;50.886;4.700;2023-09-30T10:10:47;17.40;73.30
8994;DHT22;4532;50.886;4.700;2023-09-30T10:19:09;17.50;73.30
8994;DHT22;4532;50.886;4.700;2023-09-30T10:21:39;17.60;73.30
8994;DHT22;4532;50.886;4.700;2023-09-30T10:24:42;17.60;73.20
8994;DHT22;4532;50.886;4.700;2023-09-30T10:40:52;18.00;73.30
8994;DHT22;4532;50.886;4.700;2023-09-30T10:43:39;18.00;73.10
8994;DHT22;4532;50.886;4.700;2023-09-30T10:48:56;18.10;73.30
8994;DHT22;4532;50.886;4.700;2023-09-30T10:51:24;18.20;73.30
8994;DHT22;4532;50.886;4.700;2023-09-30T10:53:55;18.20;73.20
8994;DHT22;4532;50.886;4.700;2023-09-30T10:56:31;18.30;73.20
8994;DHT22;4532;50.886;4.700;2023-09-30T10:58:59;18.30;73.10
8994;DHT22;4532;50.886;4.700;2023-09-30T11:01:33;18.40;73.00
8994;DHT22;4532;50.886;4.700;2023-09-30T11:04:03;18.40;73.00
8994;DHT22;4532;50.886;4.700;2023-09-30T11:06:32;18.50;73.10
8994;DHT22;4532;50.886;4.700;2023-09-30T11:09:03;18.50;72.90
8994;DHT22;4532;50.886;4.700;2023-09-30T11:14:04;18.60;72.90
8994;DHT22;4532;50.886;4.700;2023-09-30T11:16:43;18.60;72.80
8994;DHT22;4532;50.886;4.700;2023-09-30T11:19:15;18.60;72.80
8994;DHT22;4532;50.886;4.700;2023-09-30T11:21:43;18.70;72.80
8994;DHT22;4532;50.886;4.700;2023-09-30T11:24:11;18.70;72.80
8994;DHT22;4532;50.886;4.700;2023-09-30T11:26:41;18.70;72.80
8994;DHT22;4532;50.886;4.700;2023-09-30T11:29:12;18.80;72.80
8994;DHT22;4532;50.886;4.700;2023-09-30T11:31:41;18.80;72.80
8994;DHT22;4532;50.886;4.700;2023-09-30T11:34:12;18.90;72.80
8994;DHT22;4532;50.886;4.700;2023-09-30T11:36:41;18.90;72.80
8994;DHT22;4532;50.886;4.700;2023-09-30T11:39:30;19.00;72.80
8994;DHT22;4532;50.886;4.700;2023-09-30T11:42:00;19.00;72.80
8994;DHT22;4532;50.886;4.700;2023-09-30T11:44:28;19.10;72.80
8994;DHT22;4532;50.886;4.700;2023-09-30T11:47:00;19.10;72.70
8994;DHT22;4532;50.886;4.700;2023-09-30T11:49:37;19.20;72.80
8994;DHT22;4532;50.886;4.700;2023-09-30T11:52:12;19.20;72.70
8994;DHT22;4532;50.886;4.700;2023-09-30T11:54:44;19.30;72.60
8994;DHT22;4532;50.886;4.700;2023-09-30T11:57:16;19.30;72.40
8994;DHT22;4532;50.886;4.700;2023-09-30T11:59:45;19.30;72.40
8994;DHT22;4532;50.886;4.700;2023-09-30T12:02:14;19.30;72.30
8994;DHT22;4532;50.886;4.700;2023-09-30T12:04:45;19.40;72.30
8994;DHT22;4532;50.886;4.700;2023-09-30T12:07:14;19.40;72.30
8994;DHT22;4532;50.886;4.700;2023-09-30T12:09:44;19.40;72.20
8994;DHT22;4532;50.886;4.700;2023-09-30T12:12:11;19.50;72.30
8994;DHT22;4532;50.886;4.700;2023-09-30T12:14:41;19.50;72.20
8994;DHT22;4532;50.886;4.700;2023-09-30T12:17:09;19.50;72.10
8994;DHT22;4532;50.886;4.700;2023-09-30T12:19:42;19.50;72.10
8994;DHT22;4532;50.886;4.700;2023-09-30T12:22:10;19.50;72.10
8994;DHT22;4532;50.886;4.700;2023-09-30T12:24:38;19.50;72.00
8994;DHT22;4532;50.886;4.700;2023-09-30T12:27:07;19.50;71.90
8994;DHT22;4532;50.886;4.700;2023-09-30T12:29:34;19.60;71.90
8994;DHT22;4532;50.886;4.700;2023-09-30T12:32:01;19.60;71.90
8994;DHT22;4532;50.886;4.700;2023-09-30T12:34:29;19.60;71.90
8994;DHT22;4532;50.886;4.700;2023-09-30T12:36:57;19.60;71.80
8994;DHT22;4532;50.886;4.700;2023-09-30T12:39:25;19.60;71.80
8994;DHT22;4532;50.886;4.700;2023-09-30T12:41:54;19.60;71.80
8994;DHT22;4532;50.886;4.700;2023-09-30T12:44:26;19.70;72.00
8994;DHT22;4532;50.886;4.700;2023-09-30T12:46:55;19.80;72.10
8994;DHT22;4532;50.886;4.700;2023-09-30T12:49:25;19.80;72.00
8994;DHT22;4532;50.886;4.700;2023-09-30T12:51:55;19.80;72.00
8994;DHT22;4532;50.886;4.700;2023-09-30T12:54:23;19.90;72.00
8994;DHT22;4532;50.886;4.700;2023-09-30T12:56:50;19.90;71.90
8994;DHT22;4532;50.886;4.700;2023-09-30T12:59:18;20.00;72.00
8994;DHT22;4532;50.886;4.700;2023-09-30T13:01:49;20.00;71.90
8994;DHT22;4532;50.886;4.700;2023-09-30T13:04:17;20.10;71.90
8994;DHT22;4532;50.886;4.700;2023-09-30T13:06:45;20.10;71.80
8994;DHT22;4532;50.886;4.700;2023-09-30T13:09:12;20.20;71.60
8994;DHT22;4532;50.886;4.700;2023-09-30T13:11:40;20.20;71.60
8994;DHT22;4532;50.886;4.700;2023-09-30T13:14:07;20.20;71.50
8994;DHT22;4532;50.886;4.700;2023-09-30T13:16:34;20.30;71.60
8994;DHT22;4532;50.886;4.700;2023-09-30T13:19:01;20.30;71.60
8994;DHT22;4532;50.886;4.700;2023-09-30T13:21:29;20.40;71.60
8994;DHT22;4532;50.886;4.700;2023-09-30T13:23:57;20.40;71.50
8994;DHT22;4532;50.886;4.700;2023-09-30T13:26:24;20.40;71.40
8994;DHT22;4532;50.886;4.700;2023-09-30T13:28:52;20.40;71.30
8994;DHT22;4532;50.886;4.700;2023-09-30T13:31:19;20.40;71.50
8994;DHT22;4532;50.886;4.700;2023-09-30T13:33:49;20.50;71.50
8994;DHT22;4532;50.886;4.700;2023-09-30T13:36:16;20.50;71.40
8994;DHT22;4532;50.886;4.700;2023-09-30T13:38:43;20.60;71.30
8994;DHT22;4532;50.886;4.700;2023-09-30T13:41:11;20.60;71.20
8994;DHT22;4532;50.886;4.700;2023-09-30T13:43:39;20.70;71.20
8994;DHT22;4532;50.886;4.700;2023-09-30T13:46:11;20.70;71.20
8994;DHT22;4532;50.886;4.700;2023-09-30T13:48:44;20.70;71.20
8994;DHT22;4532;50.886;4.700;2023-09-30T13:51:11;20.80;71.10
8994;DHT22;4532;50.886;4.700;2023-09-30T13:53:41;20.80;71.00
8994;DHT22;4532;50.886;4.700;2023-09-30T13:56:10;20.90;70.80
8994;DHT22;4532;50.886;4.700;2023-09-30T13:58:37;20.90;70.70
8994;DHT22;4532;50.886;4.700;2023-09-30T14:01:04;20.90;70.70
8994;DHT22;4532;50.886;4.700;2023-09-30T14:03:34;20.90;70.60
8994;DHT22;4532;50.886;4.700;2023-09-30T14:06:12;20.90;70.70
8994;DHT22;4532;50.886;4.700;2023-09-30T14:08:40;20.90;70.60
8994;DHT22;4532;50.886;4.700;2023-09-30T14:11:11;20.90;70.40
8994;DHT22;4532;50.886;4.700;2023-09-30T14:13:41;20.90;70.40
8994;DHT22;4532;50.886;4.700;2023-09-30T14:16:09;20.90;70.40
8994;DHT22;4532;50.886;4.700;2023-09-30T14:18:36;20.90;70.30
8994;DHT22;4532;50.886;4.700;2023-09-30T14:21:08;20.90;70.30
8994;DHT22;4532;50.886;4.700;2023-09-30T14:23:35;20.90;70.20
8994;DHT22;4532;50.886;4.700;2023-09-30T14:26:08;20.90;70.00
8994;DHT22;4532;50.886;4.700;2023-09-30T14:28:40;20.90;70.00
8994;DHT22;4532;50.886;4.700;2023-09-30T14:31:08;20.90;69.80
8994;DHT22;4532;50.886;4.700;2023-09-30T14:33:38;21.00;69.90
8994;DHT22;4532;50.886;4.700;2023-09-30T14:36:07;21.00;69.80
8994;DHT22;4532;50.886;4.700;2023-09-30T14:38:34;21.00;69.80
8994;DHT22;4532;50.886;4.700;2023-09-30T14:41:07;21.00;69.70
8994;DHT22;4532;50.886;4.700;2023-09-30T14:43:38;21.00;69.50
8994;DHT22;4532;50.886;4.700;2023-09-30T14:46:05;21.00;69.60
8994;DHT22;4532;50.886;4.700;2023-09-30T14:48:32;21.00;69.60
8994;DHT22;4532;50.886;4.700;2023-09-30T14:51:00;21.10;69.80
8994;DHT22;4532;50.886;4.700;2023-09-30T14:53:30;21.10;69.70
8994;DHT22;4532;50.886;4.700;2023-09-30T14:55:59;21.10;69.60
8994;DHT22;4532;50.886;4.700;2023-09-30T14:58:30;21.10;69.50
8994;DHT22;4532;50.886;4.700;2023-09-30T15:00:57;21.20;69.40
8994;DHT22;4532;50.886;4.700;2023-09-30T15:03:25;21.20;69.40
8994;DHT22;4532;50.886;4.700;2023-09-30T15:05:58;21.20;69.40
8994;DHT22;4532;50.886;4.700;2023-09-30T15:08:26;21.20;69.10
8994;DHT22;4532;50.886;4.700;2023-09-30T15:10:53;21.20;69.00
8994;DHT22;4532;50.886;4.700;2023-09-30T15:13:22;21.30;69.10
8994;DHT22;4532;50.886;4.700;2023-09-30T15:15:49;21.20;68.80
8994;DHT22;4532;50.886;4.700;2023-09-30T15:18:17;21.30;68.80
8994;DHT22;4532;50.886;4.700;2023-09-30T15:20:44;21.20;68.70
8994;DHT22;4532;50.886;4.700;2023-09-30T15:23:11;21.20;68.60
8994;DHT22;4532;50.886;4.700;2023-09-30T15:25:43;21.20;68.60
8994;DHT22;4532;50.886;4.700;2023-09-30T15:28:11;21.20;68.40
8994;DHT22;4532;50.886;4.700;2023-09-30T15:30:40;21.20;68.40
8994;DHT22;4532;50.886;4.700;2023-09-30T15:33:07;21.20;68.40
8994;DHT22;4532;50.886;4.700;2023-09-30T15:35:38;21.20;68.40
8994;DHT22;4532;50.886;4.700;2023-09-30T15:38:07;21.20;68.30
8994;DHT22;4532;50.886;4.700;2023-09-30T15:43:20;21.20;68.00
8994;DHT22;4532;50.886;4.700;2023-09-30T15:45:48;21.20;68.10
8994;DHT22;4532;50.886;4.700;2023-09-30T15:48:15;21.20;68.00
8994;DHT22;4532;50.886;4.700;2023-09-30T15:50:43;21.20;67.80
8994;DHT22;4532;50.886;4.700;2023-09-30T15:53:11;21.20;67.70
8994;DHT22;4532;50.886;4.700;2023-09-30T15:55:40;21.20;67.60
8994;DHT22;4532;50.886;4.700;2023-09-30T15:58:07;21.20;67.60
8994;DHT22;4532;50.886;4.700;2023-09-30T16:00:40;21.20;67.50
8994;DHT22;4532;50.886;4.700;2023-09-30T16:03:10;21.20;67.70
8994;DHT22;4532;50.886;4.700;2023-09-30T16:05:38;21.20;67.50
8994;DHT22;4532;50.886;4.700;2023-09-30T16:08:09;21.20;67.40
8994;DHT22;4532;50.886;4.700;2023-09-30T16:10:39;21.20;67.20
8994;DHT22;4532;50.886;4.700;2023-09-30T16:13:07;21.10;67.20
8994;DHT22;4532;50.886;4.700;2023-09-30T16:15:39;21.10;67.10
8994;DHT22;4532;50.886;4.700;2023-09-30T16:18:07;21.10;66.90
8994;DHT22;4532;50.886;4.700;2023-09-30T16:20:37;21.10;67.00
8994;DHT22;4532;50.886;4.700;2023-09-30T16:23:05;21.10;67.00
8994;DHT22;4532;50.886;4.700;2023-09-30T16:25:33;21.10;66.80
8994;DHT22;4532;50.886;4.700;2023-09-30T16:28:02;21.10;66.80
8994;DHT22;4532;50.886;4.700;2023-09-30T16:30:29;21.10;66.80
8994;DHT22;4532;50.886;4.700;2023-09-30T16:32:57;21.10;66.60
8994;DHT22;4532;50.886;4.700;2023-09-30T16:35:25;21.10;66.70
8994;DHT22;4532;50.886;4.700;2023-09-30T16:37:52;21.10;66.60
8994;DHT22;4532;50.886;4.700;2023-09-30T16:40:22;21.10;66.50
8994;DHT22;4532;50.886;4.700;2023-09-30T16:42:52;21.10;66.40
8994;DHT22;4532;50.886;4.700;2023-09-30T16:45:19;21.10;66.40